createdAt,value
2023-03-21T00:00:55.096Z,9.00
2023-03-21T00:03:27.299Z,10.23
2023-03-21T00:05:58.622Z,9.85
2023-03-21T00:08:28.867Z,9.77
2023-03-21T00:10:59.652Z,11.18
2023-03-21T00:13:33.129Z,9.65
2023-03-21T00:16:12.259Z,8.55
2023-03-21T00:18:52.856Z,8.45
2023-03-21T00:24:18.508Z,8.57
2023-03-21T00:26:51.978Z,7.35
2023-03-21T00:29:21.925Z,9.43
2023-03-21T00:31:51.741Z,8.90
2023-03-21T00:34:31.736Z,6.32
2023-03-21T00:37:14.777Z,7.88
2023-03-21T00:39:48.102Z,7.28
2023-03-21T00:42:17.812Z,6.38
2023-03-21T00:44:49.135Z,10.27
2023-03-21T00:49:52.723Z,8.25
2023-03-21T00:52:38.086Z,10.02
2023-03-21T00:55:14.730Z,10.43
2023-03-21T00:57:50.157Z,10.57
2023-03-21T01:00:28.044Z,8.77
2023-03-21T01:03:17.467Z,8.70
2023-03-21T01:06:12.337Z,9.47
2023-03-21T01:08:53.431Z,9.15
2023-03-21T01:11:25.974Z,8.70
2023-03-21T01:14:07.271Z,7.53
2023-03-21T01:16:44.911Z,10.02
2023-03-21T01:19:25.041Z,9.30
2023-03-21T01:21:57.833Z,8.00
2023-03-21T01:24:29.489Z,8.27
2023-03-21T01:26:59.191Z,7.95
2023-03-21T01:29:29.302Z,8.10
2023-03-21T01:31:59.596Z,8.15
2023-03-21T01:34:30.313Z,10.05
2023-03-21T01:37:01.073Z,8.93
2023-03-21T01:39:35.139Z,7.43
2023-03-21T01:42:04.857Z,9.65
2023-03-21T01:44:35.741Z,8.95
2023-03-21T01:47:13.057Z,7.57
2023-03-21T01:49:46.898Z,8.80
2023-03-21T01:52:36.059Z,8.05
2023-03-21T01:55:12.154Z,6.78
2023-03-21T01:58:02.396Z,7.80
2023-03-21T02:00:36.795Z,6.10
2023-03-21T02:03:16.990Z,8.52
2023-03-21T02:05:56.272Z,7.13
2023-03-21T02:08:38.390Z,5.65
2023-03-21T02:11:10.921Z,6.07
2023-03-21T02:13:41.013Z,6.85
2023-03-21T02:16:20.343Z,7.32
2023-03-21T02:18:58.626Z,7.40
2023-03-21T02:22:07.514Z,9.68
2023-03-21T02:25:29.959Z,12.70
2023-03-21T02:28:08.261Z,8.77
2023-03-21T02:30:52.502Z,9.93
2023-03-21T02:33:46.675Z,7.70
2023-03-21T02:36:29.516Z,7.57
2023-03-21T02:39:09.482Z,8.25
2023-03-21T02:41:48.188Z,6.38
2023-03-21T02:44:25.099Z,7.60
2023-03-21T02:47:05.891Z,7.82
2023-03-21T02:52:20.759Z,8.45
2023-03-21T02:54:58.744Z,11.73
2023-03-21T02:57:40.145Z,9.27
2023-03-21T03:00:17.884Z,9.27
2023-03-21T03:02:54.552Z,14.20
2023-03-21T03:05:32.104Z,8.63
2023-03-21T03:08:17.599Z,10.05
2023-03-21T03:11:06.063Z,13.00
2023-03-21T03:13:58.213Z,11.05
2023-03-21T03:16:37.196Z,11.20
2023-03-21T03:19:11.230Z,10.50
2023-03-21T03:21:45.018Z,12.05
2023-03-21T03:24:21.843Z,13.10
2023-03-21T03:26:57.650Z,12.75
2023-03-21T03:29:31.140Z,12.57
2023-03-21T03:32:05.164Z,11.05
2023-03-21T03:34:39.890Z,17.80
2023-03-21T03:37:12.381Z,9.35
2023-03-21T03:39:47.608Z,17.20
2023-03-21T03:42:28.357Z,12.25
2023-03-21T03:44:59.829Z,12.52
2023-03-21T03:47:41.832Z,11.38
2023-03-21T03:50:19.087Z,14.18
2023-03-21T03:52:56.537Z,12.48
2023-03-21T03:55:34.817Z,14.43
2023-03-21T03:58:21.356Z,13.23
2023-03-21T04:00:53.625Z,13.45
2023-03-21T04:03:23.204Z,17.20
2023-03-21T04:05:52.975Z,12.03
2023-03-21T04:08:23.638Z,13.52
2023-03-21T04:13:24.627Z,13.65
2023-03-21T04:15:54.488Z,8.43
2023-03-21T04:18:24.226Z,13.70
2023-03-21T04:20:54.165Z,10.60
2023-03-21T04:23:23.538Z,9.35
2023-03-21T04:25:57.077Z,9.85
2023-03-21T04:28:28.898Z,13.32
2023-03-21T04:31:05.172Z,12.45
2023-03-21T04:33:39.238Z,13.55
2023-03-21T04:36:27.825Z,11.10
2023-03-21T04:39:01.082Z,9.23
2023-03-21T04:41:31.117Z,11.57
2023-03-21T04:44:01.912Z,13.65
2023-03-21T04:46:34.877Z,8.63
2023-03-21T04:49:08.479Z,15.25
2023-03-21T04:51:41.367Z,9.93
2023-03-21T04:54:11.062Z,12.02
2023-03-21T04:56:41.523Z,13.33
2023-03-21T04:59:14.667Z,9.57
2023-03-21T05:01:45.311Z,9.10
2023-03-21T05:04:16.091Z,11.60
2023-03-21T05:06:46.678Z,13.65
2023-03-21T05:09:17.866Z,7.10
2023-03-21T05:11:47.768Z,9.73
2023-03-21T05:14:24.067Z,9.25
2023-03-21T05:16:56.720Z,6.65
2023-03-21T05:19:35.702Z,9.25
2023-03-21T05:22:08.351Z,14.43
2023-03-21T05:24:42.254Z,10.10
2023-03-21T05:27:14.472Z,8.85
2023-03-21T05:29:45.728Z,10.65
2023-03-21T05:32:15.849Z,8.43
2023-03-21T05:34:45.276Z,12.20
2023-03-21T05:37:14.928Z,11.32
2023-03-21T05:39:44.342Z,12.80
2023-03-21T05:42:13.988Z,8.07
2023-03-21T05:44:46.379Z,10.50
2023-03-21T05:47:17.189Z,6.03
2023-03-21T05:49:47.492Z,12.80
2023-03-21T05:52:17.429Z,8.95
2023-03-21T05:54:49.231Z,9.52
2023-03-21T05:57:20.040Z,6.85
2023-03-21T05:59:50.907Z,6.97
2023-03-21T06:02:21.744Z,12.15
2023-03-21T06:04:51.500Z,8.45
2023-03-21T06:07:21.748Z,9.60
2023-03-21T06:09:51.253Z,12.20
2023-03-21T06:12:20.986Z,9.40
2023-03-21T06:14:51.758Z,12.80
2023-03-21T06:17:22.247Z,14.20
2023-03-21T06:19:51.653Z,14.80
2023-03-21T06:22:21.383Z,14.27
2023-03-21T06:24:53.510Z,12.60
2023-03-21T06:27:23.664Z,13.13
2023-03-21T06:29:54.474Z,17.33
2023-03-21T06:32:27.534Z,7.53
2023-03-21T06:34:57.031Z,8.07
2023-03-21T06:37:28.017Z,18.42
2023-03-21T06:39:57.509Z,16.30
2023-03-21T06:42:27.280Z,12.18
2023-03-21T06:44:58.204Z,10.77
2023-03-21T06:47:28.018Z,7.78
2023-03-21T06:49:57.427Z,10.18
2023-03-21T06:52:27.927Z,11.37
2023-03-21T06:54:57.530Z,11.80
2023-03-21T06:57:27.657Z,13.63
2023-03-21T06:59:58.396Z,13.00
2023-03-21T07:02:31.402Z,11.07
2023-03-21T07:05:00.856Z,12.18
2023-03-21T07:07:30.954Z,11.93
2023-03-21T07:10:00.301Z,9.15
2023-03-21T07:12:29.934Z,11.00
2023-03-21T07:15:00.697Z,7.45
2023-03-21T07:17:30.881Z,11.77
2023-03-21T07:20:00.323Z,8.60
2023-03-21T07:22:30.114Z,8.75
2023-03-21T07:25:05.143Z,8.18
2023-03-21T07:27:35.342Z,14.25
2023-03-21T07:30:07.071Z,12.88
2023-03-21T07:32:38.296Z,13.85
2023-03-21T07:37:38.229Z,7.97
2023-03-21T07:40:10.892Z,9.93
2023-03-21T07:42:43.960Z,8.90
2023-03-21T07:45:16.634Z,9.85
2023-03-21T07:47:49.760Z,6.70
2023-03-21T07:50:23.019Z,7.53
2023-03-21T07:55:22.381Z,9.73
2023-03-21T07:57:53.241Z,5.30
2023-03-21T08:00:25.995Z,6.73
2023-03-21T08:02:59.149Z,5.97
2023-03-21T08:05:30.737Z,7.35
2023-03-21T08:08:00.477Z,6.35
2023-03-21T08:10:30.375Z,5.53
2023-03-21T08:13:00.669Z,6.68
2023-03-21T08:15:31.757Z,7.77
2023-03-21T08:18:02.053Z,6.50
2023-03-21T08:20:31.613Z,5.25
2023-03-21T08:23:01.295Z,5.85
2023-03-21T08:25:31.759Z,6.43
2023-03-21T08:28:01.713Z,7.75
2023-03-21T08:30:32.793Z,9.43
2023-03-21T08:33:03.204Z,6.38
2023-03-21T08:35:33.140Z,5.47
2023-03-21T08:38:04.727Z,5.95
2023-03-21T08:40:34.124Z,6.45
2023-03-21T08:43:03.966Z,7.68
2023-03-21T08:45:36.407Z,5.63
2023-03-21T08:48:06.668Z,4.88
2023-03-21T08:50:36.341Z,7.15
2023-03-21T08:53:06.043Z,7.30
2023-03-21T08:55:35.813Z,5.60
2023-03-21T08:58:07.261Z,7.68
2023-03-21T09:03:08.966Z,12.73
2023-03-21T09:05:39.655Z,6.20
2023-03-21T09:08:09.535Z,6.72
2023-03-21T09:10:39.373Z,5.97
2023-03-21T09:13:09.242Z,7.03
2023-03-21T09:15:40.790Z,4.75
2023-03-21T09:18:15.300Z,4.53
2023-03-21T09:20:46.095Z,9.23
2023-03-21T09:23:17.209Z,4.40
2023-03-21T09:25:47.706Z,4.07
2023-03-21T09:28:17.801Z,3.47
2023-03-21T09:30:48.551Z,6.80
2023-03-21T09:33:21.495Z,4.30
2023-03-21T09:35:52.186Z,5.53
2023-03-21T09:38:22.268Z,5.55
2023-03-21T09:41:03.806Z,5.18
2023-03-21T09:43:44.814Z,6.25
2023-03-21T09:46:21.959Z,4.80
2023-03-21T09:48:58.465Z,4.43
2023-03-21T09:51:33.300Z,3.30
2023-03-21T09:54:08.937Z,11.63
2023-03-21T09:56:40.770Z,5.05
2023-03-21T09:59:17.668Z,2.72
2023-03-21T10:01:49.851Z,5.47
2023-03-21T10:04:20.903Z,10.48
2023-03-21T10:06:58.839Z,4.43
2023-03-21T10:09:30.227Z,4.47
2023-03-21T10:12:03.741Z,4.35
2023-03-21T10:14:37.525Z,7.65
2023-03-21T10:17:21.686Z,4.15
2023-03-21T10:19:57.529Z,3.67
2023-03-21T10:22:26.888Z,4.68
2023-03-21T10:24:57.054Z,7.72
2023-03-21T10:27:26.414Z,4.90
2023-03-21T10:29:57.793Z,6.38
2023-03-21T10:32:29.049Z,5.30
2023-03-21T10:35:01.086Z,5.20
2023-03-21T10:37:31.010Z,4.38
2023-03-21T10:40:01.215Z,3.47
2023-03-21T10:42:33.231Z,4.80
2023-03-21T10:45:03.027Z,4.40
2023-03-21T10:47:36.184Z,5.82
2023-03-21T10:50:09.570Z,6.60
2023-03-21T10:52:44.522Z,5.93
2023-03-21T10:55:21.778Z,4.22
2023-03-21T10:57:54.798Z,2.75
2023-03-21T11:00:29.951Z,3.88
2023-03-21T11:03:01.485Z,6.57
2023-03-21T11:05:38.134Z,5.95
2023-03-21T11:08:12.924Z,7.10
2023-03-21T11:10:53.937Z,5.63
2023-03-21T11:13:27.766Z,4.43
2023-03-21T11:16:05.382Z,7.72
2023-03-21T11:18:51.452Z,2.78
2023-03-21T11:21:22.561Z,5.45
2023-03-21T11:23:53.126Z,10.57
2023-03-21T11:26:27.577Z,4.03
2023-03-21T11:28:57.747Z,5.72
2023-03-21T11:31:40.139Z,4.25
2023-03-21T11:34:11.710Z,5.10
2023-03-21T11:36:42.057Z,5.00
2023-03-21T11:39:30.805Z,7.13
2023-03-21T11:42:01.297Z,6.07
2023-03-21T11:44:33.865Z,5.57
2023-03-21T11:47:04.492Z,7.85
2023-03-21T11:49:35.807Z,9.73
2023-03-21T11:52:16.512Z,6.40
2023-03-21T11:55:06.951Z,5.30
2023-03-21T12:00:21.145Z,6.32
2023-03-21T12:03:12.829Z,3.10
2023-03-21T12:05:50.838Z,6.30
2023-03-21T12:08:33.597Z,3.95
2023-03-21T12:11:09.815Z,6.45
2023-03-21T12:13:52.229Z,5.45
2023-03-21T12:16:33.520Z,5.93
2023-03-21T12:19:28.677Z,6.05
2023-03-21T12:22:08.562Z,8.25
2023-03-21T12:24:43.224Z,5.35
2023-03-21T12:27:20.338Z,7.55
2023-03-21T12:30:06.157Z,11.15
2023-03-21T12:32:49.989Z,6.28
2023-03-21T12:35:33.241Z,5.80
2023-03-21T12:38:22.770Z,21.48
2023-03-21T12:41:23.902Z,12.32
2023-03-21T12:44:00.254Z,6.07
2023-03-21T12:46:38.116Z,7.05
2023-03-21T12:49:15.644Z,4.40
2023-03-21T12:51:48.086Z,9.70
2023-03-21T12:54:25.781Z,5.25
2023-03-21T12:56:59.737Z,6.63
2023-03-21T12:59:36.663Z,9.93
2023-03-21T13:02:18.475Z,8.13
2023-03-21T13:05:01.539Z,8.95
2023-03-21T13:07:36.292Z,9.20
2023-03-21T13:10:16.972Z,9.43
2023-03-21T13:12:57.988Z,8.95
2023-03-21T13:15:42.434Z,6.07
2023-03-21T13:18:21.760Z,7.22
2023-03-21T13:20:54.047Z,4.80
2023-03-21T13:23:25.328Z,12.05
2023-03-21T13:25:59.242Z,10.63
2023-03-21T13:28:31.594Z,9.90
2023-03-21T13:31:22.480Z,7.10
2023-03-21T13:33:54.688Z,5.28
2023-03-21T13:36:27.230Z,4.93
2023-03-21T13:39:02.570Z,4.18
2023-03-21T13:41:37.406Z,5.65
2023-03-21T13:44:21.341Z,7.72
2023-03-21T13:46:56.768Z,15.48
2023-03-21T13:49:33.808Z,14.95
2023-03-21T13:52:04.705Z,12.80
2023-03-21T13:54:53.565Z,6.97
2023-03-21T13:57:39.563Z,17.02
2023-03-21T14:00:23.901Z,14.18
2023-03-21T14:02:57.918Z,12.93
2023-03-21T14:05:29.441Z,7.05
2023-03-21T14:08:13.663Z,15.07
2023-03-21T14:10:49.329Z,14.18
2023-03-21T14:13:24.409Z,13.07
2023-03-21T14:15:57.657Z,12.73
2023-03-21T14:18:52.857Z,11.55
2023-03-21T14:21:24.879Z,13.25
2023-03-21T14:24:02.590Z,10.73
2023-03-21T14:26:35.176Z,12.20
2023-03-21T14:29:22.790Z,10.18
2023-03-21T14:31:56.631Z,12.30
2023-03-21T14:34:28.635Z,10.02
2023-03-21T14:36:59.579Z,17.98
2023-03-21T14:39:31.543Z,11.27
2023-03-21T14:42:05.884Z,11.05
2023-03-21T14:44:56.176Z,9.80
2023-03-21T14:47:28.975Z,11.30
2023-03-21T14:49:58.898Z,11.20
2023-03-21T14:55:02.354Z,11.10
2023-03-21T14:57:34.030Z,13.50
2023-03-21T15:00:12.694Z,10.57
2023-03-21T15:02:44.911Z,9.75
2023-03-21T15:05:20.756Z,9.70
2023-03-21T15:07:57.029Z,8.40
2023-03-21T15:10:28.059Z,10.00
2023-03-21T15:13:00.861Z,5.85
2023-03-21T15:15:33.429Z,12.82
2023-03-21T15:18:07.050Z,8.63
2023-03-21T15:20:39.547Z,7.95
2023-03-21T15:23:14.189Z,16.70
2023-03-21T15:25:47.410Z,7.63
2023-03-21T15:28:18.285Z,11.13
2023-03-21T15:33:22.411Z,8.50
2023-03-21T15:35:55.959Z,7.82
2023-03-21T15:38:32.363Z,8.27
2023-03-21T15:41:27.340Z,10.00
2023-03-21T15:44:04.704Z,7.03
2023-03-21T15:46:42.594Z,9.07
2023-03-21T15:49:20.907Z,11.68
2023-03-21T15:51:53.713Z,7.25
2023-03-21T15:54:26.910Z,7.20
2023-03-21T15:56:57.479Z,12.18
2023-03-21T15:59:32.260Z,10.75
2023-03-21T16:02:03.654Z,12.02
2023-03-21T16:04:33.609Z,11.98
2023-03-21T16:07:05.958Z,15.73
2023-03-21T16:09:47.138Z,15.70
2023-03-21T16:12:18.914Z,11.43
2023-03-21T16:14:49.546Z,12.32
2023-03-21T16:17:33.790Z,12.20
2023-03-21T16:20:05.930Z,14.07
2023-03-21T16:22:38.532Z,12.48
2023-03-21T16:25:09.087Z,18.23
2023-03-21T16:27:38.568Z,15.27
2023-03-21T16:30:10.292Z,22.65
2023-03-21T16:32:42.180Z,23.05
2023-03-21T16:35:12.831Z,15.07
2023-03-21T16:37:42.686Z,16.30
2023-03-21T16:40:28.095Z,14.98
2023-03-21T16:42:57.521Z,18.15
2023-03-21T16:45:29.165Z,19.48
2023-03-21T16:48:02.397Z,17.67
2023-03-21T16:50:34.678Z,15.95
2023-03-21T16:53:04.983Z,17.58
2023-03-21T16:55:35.122Z,18.13
2023-03-21T16:58:07.083Z,20.83
2023-03-21T17:00:37.629Z,18.08
2023-03-21T17:03:16.092Z,15.57
2023-03-21T17:05:46.418Z,24.13
2023-03-21T17:08:18.947Z,21.95
2023-03-21T17:10:49.125Z,17.67
2023-03-21T17:13:18.562Z,22.70
2023-03-21T17:15:48.701Z,17.80
2023-03-21T17:18:19.580Z,20.67
2023-03-21T17:20:49.507Z,17.27
2023-03-21T17:23:19.174Z,14.45
2023-03-21T17:25:49.047Z,17.97
2023-03-21T17:28:18.465Z,16.52
2023-03-21T17:30:48.818Z,16.77
2023-03-21T17:33:19.953Z,16.20
2023-03-21T17:35:49.712Z,10.93
2023-03-21T17:38:20.514Z,13.85
2023-03-21T17:40:50.588Z,12.98
2023-03-21T17:43:22.785Z,13.15
2023-03-21T17:45:55.685Z,12.73
2023-03-21T17:48:27.053Z,13.55
2023-03-21T17:50:56.923Z,16.85
2023-03-21T17:53:26.955Z,13.20
2023-03-21T17:55:58.061Z,16.33
2023-03-21T17:58:28.664Z,13.93
2023-03-21T18:00:58.746Z,13.20
2023-03-21T18:03:30.036Z,22.75
2023-03-21T18:06:00.585Z,20.00
2023-03-21T18:08:29.873Z,15.60
2023-03-21T18:10:59.692Z,17.35
2023-03-21T18:13:29.728Z,15.60
2023-03-21T18:16:00.519Z,15.77
2023-03-21T18:18:31.297Z,15.25
2023-03-21T18:21:02.029Z,19.33
2023-03-21T18:23:32.563Z,14.50
2023-03-21T18:26:02.278Z,17.77
2023-03-21T18:28:31.891Z,14.73
2023-03-21T18:31:14.230Z,16.00
2023-03-21T18:33:49.110Z,21.05
2023-03-21T18:36:24.785Z,20.45
2023-03-21T18:38:56.901Z,32.33
2023-03-21T18:41:27.442Z,20.70
2023-03-21T18:44:02.958Z,21.73
2023-03-21T18:46:47.463Z,25.08
2023-03-21T18:50:02.134Z,21.13
2023-03-21T18:52:09.718Z,24.58
2023-03-21T18:54:39.877Z,24.95
2023-03-21T18:59:59.909Z,29.50
2023-03-21T19:02:30.809Z,25.63
2023-03-21T19:05:01.788Z,22.20
2023-03-21T19:07:31.826Z,23.70
2023-03-21T19:10:17.124Z,21.70
2023-03-21T19:12:48.137Z,27.10
2023-03-21T19:15:19.953Z,27.48
2023-03-21T19:20:45.142Z,25.70
2023-03-21T19:23:17.263Z,23.33
2023-03-21T19:25:47.135Z,23.60
2023-03-21T19:28:16.989Z,24.02
2023-03-21T19:30:50.393Z,25.27
2023-03-21T19:33:21.743Z,22.50
2023-03-21T19:36:10.879Z,23.65
2023-03-21T19:38:42.795Z,23.90
2023-03-21T19:41:12.369Z,22.90
2023-03-21T19:43:53.187Z,29.45
2023-03-21T19:46:25.582Z,24.02
2023-03-21T19:48:56.668Z,19.23
2023-03-21T19:51:30.369Z,18.50
2023-03-21T19:54:00.834Z,21.35
2023-03-21T19:56:31.480Z,17.23
2023-03-21T19:59:03.255Z,24.83
2023-03-21T20:01:34.058Z,24.17
2023-03-21T20:04:06.963Z,19.17
2023-03-21T20:06:38.765Z,21.08
2023-03-21T20:12:01.580Z,25.50
2023-03-21T20:14:33.402Z,27.13
2023-03-21T20:17:05.886Z,25.88
2023-03-21T20:19:35.833Z,23.98
2023-03-21T20:22:21.964Z,31.45
2023-03-21T20:25:05.179Z,24.85
2023-03-21T20:27:39.271Z,28.55
2023-03-21T20:30:14.227Z,24.77
2023-03-21T20:32:46.026Z,23.35
2023-03-21T20:35:36.728Z,23.30
2023-03-21T20:38:13.746Z,22.55
2023-03-21T20:40:45.838Z,27.13
2023-03-21T20:44:08.846Z,23.52
2023-03-21T20:46:07.215Z,31.50
2023-03-21T20:48:38.382Z,24.33
2023-03-21T20:52:14.896Z,31.00
2023-03-21T20:54:01.738Z,28.20
2023-03-21T20:56:33.268Z,25.05
2023-03-21T20:59:16.776Z,20.65
2023-03-21T21:01:48.454Z,22.77
2023-03-21T21:04:20.267Z,27.20
2023-03-21T21:06:50.409Z,25.65
2023-03-21T21:09:21.171Z,24.20
2023-03-21T21:12:10.498Z,25.27
2023-03-21T21:14:40.668Z,22.65
2023-03-21T21:17:30.809Z,21.98
2023-03-21T21:20:01.809Z,23.15
2023-03-21T21:22:36.324Z,24.92
2023-03-21T21:25:10.741Z,20.55
2023-03-21T21:27:40.570Z,31.05
2023-03-21T21:30:11.468Z,24.60
2023-03-21T21:32:42.238Z,26.58
2023-03-21T21:35:11.945Z,25.48
2023-03-21T21:37:42.174Z,26.67
2023-03-21T21:40:16.050Z,31.33
2023-03-21T21:42:46.702Z,28.88
2023-03-21T21:45:16.151Z,35.58
2023-03-21T21:47:48.898Z,26.75
2023-03-21T21:50:18.935Z,25.70
2023-03-21T21:52:54.532Z,30.60
2023-03-21T21:55:28.498Z,28.13
2023-03-21T21:57:58.676Z,34.45
2023-03-21T22:00:31.070Z,34.75
2023-03-21T22:03:01.948Z,34.03
2023-03-21T22:05:33.577Z,33.72
2023-03-21T22:08:08.468Z,34.75
2023-03-21T22:10:45.917Z,33.35
2023-03-21T22:13:15.893Z,33.30
2023-03-21T22:15:47.249Z,33.08
2023-03-21T22:18:16.934Z,32.30
2023-03-21T22:20:46.798Z,36.95
2023-03-21T22:23:16.713Z,38.93
2023-03-21T22:25:52.719Z,34.03
2023-03-21T22:28:25.952Z,33.40
2023-03-21T22:30:55.699Z,33.00
2023-03-21T22:33:25.549Z,36.10
2023-03-21T22:35:55.165Z,32.72
2023-03-21T22:38:25.526Z,31.83
2023-03-21T22:41:00.534Z,35.25
2023-03-21T22:43:34.390Z,35.38
2023-03-21T22:46:05.812Z,39.08
2023-03-21T22:48:35.750Z,36.13
2023-03-21T22:51:05.645Z,37.47
2023-03-21T22:53:35.271Z,36.15
2023-03-21T22:56:06.710Z,41.15
2023-03-21T22:58:36.508Z,38.03
2023-03-21T23:01:06.626Z,37.55
2023-03-21T23:03:36.378Z,35.17
2023-03-21T23:06:06.029Z,38.00
2023-03-21T23:08:35.849Z,34.07
2023-03-21T23:11:10.834Z,34.13
2023-03-21T23:13:43.320Z,28.42
2023-03-21T23:16:12.956Z,30.27
2023-03-21T23:18:43.327Z,33.03
2023-03-21T23:21:13.522Z,34.40
2023-03-21T23:23:44.181Z,30.30
2023-03-21T23:26:15.622Z,30.95
2023-03-21T23:28:46.450Z,28.65
2023-03-21T23:31:18.623Z,27.80
2023-03-21T23:33:49.453Z,24.27
2023-03-21T23:36:20.129Z,26.25
2023-03-21T23:41:23.071Z,20.83
2023-03-21T23:43:53.595Z,24.20
2023-03-21T23:46:23.121Z,23.57
2023-03-21T23:48:53.043Z,19.92
2023-03-21T23:51:22.576Z,23.70
2023-03-21T23:53:55.198Z,19.90
2023-03-21T23:56:27.545Z,23.55
2023-03-21T23:58:59.580Z,21.35
